sensor_id;sensor_type;location;lat;lon;timestamp;P1;durP1;ratioP1;P2;durP2;ratioP2
18838;SDS011;9548;56.920;14.804;2023-02-21T00:01:55;23.42;;;2.90;;
18838;SDS011;9548;56.920;14.804;2023-02-21T00:04:40;24.23;;;2.33;;
18838;SDS011;9548;56.920;14.804;2023-02-21T00:07:24;21.05;;;2.95;;
18838;SDS011;9548;56.920;14.804;2023-02-21T00:10:10;28.67;;;3.55;;
18838;SDS011;9548;56.920;14.804;2023-02-21T00:12:56;17.80;;;3.22;;
18838;SDS011;9548;56.920;14.804;2023-02-21T00:15:41;26.20;;;3.05;;
18838;SDS011;9548;56.920;14.804;2023-02-21T00:18:26;18.83;;;2.53;;
18838;SDS011;9548;56.920;14.804;2023-02-21T00:21:10;24.08;;;3.00;;
18838;SDS011;9548;56.920;14.804;2023-02-21T00:23:55;18.30;;;3.45;;
18838;SDS011;9548;56.920;14.804;2023-02-21T00:26:39;22.80;;;3.08;;
18838;SDS011;9548;56.920;14.804;2023-02-21T00:29:24;19.08;;;2.92;;
18838;SDS011;9548;56.920;14.804;2023-02-21T00:32:10;17.02;;;2.75;;
18838;SDS011;9548;56.920;14.804;2023-02-21T00:34:54;14.25;;;2.38;;
18838;SDS011;9548;56.920;14.804;2023-02-21T00:37:39;19.55;;;2.70;;
18838;SDS011;9548;56.920;14.804;2023-02-21T00:40:24;17.92;;;2.85;;
18838;SDS011;9548;56.920;14.804;2023-02-21T00:43:09;17.77;;;2.45;;
18838;SDS011;9548;56.920;14.804;2023-02-21T00:45:53;19.83;;;3.05;;
18838;SDS011;9548;56.920;14.804;2023-02-21T00:48:39;24.45;;;3.00;;
18838;SDS011;9548;56.920;14.804;2023-02-21T00:51:24;21.45;;;2.50;;
18838;SDS011;9548;56.920;14.804;2023-02-21T00:54:08;25.25;;;3.60;;
18838;SDS011;9548;56.920;14.804;2023-02-21T00:56:52;24.42;;;2.75;;
18838;SDS011;9548;56.920;14.804;2023-02-21T00:59:37;20.02;;;3.10;;
18838;SDS011;9548;56.920;14.804;2023-02-21T01:02:21;16.77;;;2.75;;
18838;SDS011;9548;56.920;14.804;2023-02-21T01:05:07;15.32;;;2.95;;
18838;SDS011;9548;56.920;14.804;2023-02-21T01:07:51;22.88;;;2.50;;
18838;SDS011;9548;56.920;14.804;2023-02-21T01:10:35;17.55;;;2.72;;
18838;SDS011;9548;56.920;14.804;2023-02-21T01:13:20;25.75;;;2.95;;
18838;SDS011;9548;56.920;14.804;2023-02-21T01:16:05;19.23;;;2.90;;
18838;SDS011;9548;56.920;14.804;2023-02-21T01:18:50;23.70;;;3.05;;
18838;SDS011;9548;56.920;14.804;2023-02-21T01:21:36;24.95;;;3.83;;
18838;SDS011;9548;56.920;14.804;2023-02-21T01:24:20;25.40;;;2.95;;
18838;SDS011;9548;56.920;14.804;2023-02-21T01:27:04;17.52;;;3.13;;
18838;SDS011;9548;56.920;14.804;2023-02-21T01:29:49;12.65;;;2.22;;
18838;SDS011;9548;56.920;14.804;2023-02-21T01:32:33;24.13;;;3.53;;
18838;SDS011;9548;56.920;14.804;2023-02-21T01:35:18;17.27;;;2.95;;
18838;SDS011;9548;56.920;14.804;2023-02-21T01:38:04;22.15;;;2.45;;
18838;SDS011;9548;56.920;14.804;2023-02-21T01:40:48;24.13;;;2.58;;
18838;SDS011;9548;56.920;14.804;2023-02-21T01:43:32;13.15;;;2.70;;
18838;SDS011;9548;56.920;14.804;2023-02-21T01:46:18;19.90;;;2.88;;
18838;SDS011;9548;56.920;14.804;2023-02-21T01:49:03;15.43;;;2.75;;
18838;SDS011;9548;56.920;14.804;2023-02-21T01:51:51;21.80;;;3.28;;
18838;SDS011;9548;56.920;14.804;2023-02-21T01:54:38;17.35;;;2.83;;
18838;SDS011;9548;56.920;14.804;2023-02-21T01:57:26;22.73;;;2.72;;
18838;SDS011;9548;56.920;14.804;2023-02-21T02:00:12;18.83;;;3.45;;
18838;SDS011;9548;56.920;14.804;2023-02-21T02:02:58;18.38;;;2.88;;
18838;SDS011;9548;56.920;14.804;2023-02-21T02:05:45;20.25;;;4.05;;
18838;SDS011;9548;56.920;14.804;2023-02-21T02:08:31;25.52;;;3.40;;
18838;SDS011;9548;56.920;14.804;2023-02-21T02:11:31;17.55;;;2.80;;
18838;SDS011;9548;56.920;14.804;2023-02-21T02:14:57;19.55;;;2.92;;
18838;SDS011;9548;56.920;14.804;2023-02-21T02:17:49;25.80;;;2.80;;
18838;SDS011;9548;56.920;14.804;2023-02-21T02:20:48;22.30;;;3.85;;
18838;SDS011;9548;56.920;14.804;2023-02-21T02:23:50;11.35;;;1.77;;
18838;SDS011;9548;56.920;14.804;2023-02-21T02:29:47;19.25;;;2.55;;
18838;SDS011;9548;56.920;14.804;2023-02-21T02:32:45;17.10;;;2.38;;
18838;SDS011;9548;56.920;14.804;2023-02-21T02:35:31;22.08;;;2.75;;
18838;SDS011;9548;56.920;14.804;2023-02-21T02:38:01;17.80;;;2.53;;
18838;SDS011;9548;56.920;14.804;2023-02-21T02:40:34;19.52;;;2.45;;
18838;SDS011;9548;56.920;14.804;2023-02-21T02:43:07;20.20;;;3.25;;
18838;SDS011;9548;56.920;14.804;2023-02-21T02:45:40;20.48;;;3.35;;
18838;SDS011;9548;56.920;14.804;2023-02-21T02:48:12;18.30;;;2.53;;
18838;SDS011;9548;56.920;14.804;2023-02-21T02:50:43;26.13;;;3.47;;
18838;SDS011;9548;56.920;14.804;2023-02-21T02:53:14;11.30;;;2.25;;
18838;SDS011;9548;56.920;14.804;2023-02-21T02:55:44;19.67;;;2.33;;
18838;SDS011;9548;56.920;14.804;2023-02-21T02:58:15;14.57;;;2.65;;
18838;SDS011;9548;56.920;14.804;2023-02-21T03:00:44;17.42;;;3.08;;
18838;SDS011;9548;56.920;14.804;2023-02-21T03:03:21;14.65;;;2.10;;
18838;SDS011;9548;56.920;14.804;2023-02-21T03:06:10;18.05;;;2.75;;
18838;SDS011;9548;56.920;14.804;2023-02-21T03:08:49;16.45;;;3.03;;
18838;SDS011;9548;56.920;14.804;2023-02-21T03:11:22;11.65;;;1.85;;
18838;SDS011;9548;56.920;14.804;2023-02-21T03:13:52;22.83;;;2.47;;
18838;SDS011;9548;56.920;14.804;2023-02-21T03:16:25;23.75;;;2.80;;
18838;SDS011;9548;56.920;14.804;2023-02-21T03:18:56;18.80;;;3.05;;
18838;SDS011;9548;56.920;14.804;2023-02-21T03:21:29;20.90;;;2.55;;
18838;SDS011;9548;56.920;14.804;2023-02-21T03:24:00;13.77;;;2.60;;
18838;SDS011;9548;56.920;14.804;2023-02-21T03:26:31;16.45;;;2.80;;
18838;SDS011;9548;56.920;14.804;2023-02-21T03:29:00;17.05;;;2.17;;
18838;SDS011;9548;56.920;14.804;2023-02-21T03:31:29;14.18;;;1.77;;
18838;SDS011;9548;56.920;14.804;2023-02-21T03:34:01;16.92;;;2.40;;
18838;SDS011;9548;56.920;14.804;2023-02-21T03:36:30;15.25;;;2.35;;
18838;SDS011;9548;56.920;14.804;2023-02-21T03:38:57;21.25;;;2.63;;
18838;SDS011;9548;56.920;14.804;2023-02-21T03:41:24;19.55;;;2.67;;
18838;SDS011;9548;56.920;14.804;2023-02-21T03:43:51;17.38;;;2.55;;
18838;SDS011;9548;56.920;14.804;2023-02-21T03:46:18;20.85;;;2.92;;
18838;SDS011;9548;56.920;14.804;2023-02-21T03:48:45;23.00;;;2.95;;
18838;SDS011;9548;56.920;14.804;2023-02-21T03:51:12;15.05;;;2.28;;
18838;SDS011;9548;56.920;14.804;2023-02-21T03:53:40;23.65;;;2.95;;
18838;SDS011;9548;56.920;14.804;2023-02-21T03:56:07;14.60;;;3.00;;
18838;SDS011;9548;56.920;14.804;2023-02-21T03:58:34;19.52;;;2.90;;
18838;SDS011;9548;56.920;14.804;2023-02-21T04:01:01;19.73;;;3.05;;
18838;SDS011;9548;56.920;14.804;2023-02-21T04:03:29;18.88;;;2.50;;
18838;SDS011;9548;56.920;14.804;2023-02-21T04:05:56;18.90;;;2.95;;
18838;SDS011;9548;56.920;14.804;2023-02-21T04:08:23;25.77;;;2.78;;
18838;SDS011;9548;56.920;14.804;2023-02-21T04:10:51;23.15;;;3.25;;
18838;SDS011;9548;56.920;14.804;2023-02-21T04:13:18;20.88;;;2.70;;
18838;SDS011;9548;56.920;14.804;2023-02-21T04:15:45;17.55;;;2.45;;
18838;SDS011;9548;56.920;14.804;2023-02-21T04:18:12;17.85;;;2.67;;
18838;SDS011;9548;56.920;14.804;2023-02-21T04:20:39;33.67;;;3.97;;
18838;SDS011;9548;56.920;14.804;2023-02-21T04:23:06;18.25;;;3.28;;
18838;SDS011;9548;56.920;14.804;2023-02-21T04:25:33;21.30;;;2.65;;
18838;SDS011;9548;56.920;14.804;2023-02-21T04:28:01;22.10;;;2.88;;
18838;SDS011;9548;56.920;14.804;2023-02-21T04:30:28;23.17;;;2.97;;
18838;SDS011;9548;56.920;14.804;2023-02-21T04:32:55;20.33;;;2.95;;
18838;SDS011;9548;56.920;14.804;2023-02-21T04:35:22;29.35;;;3.20;;
18838;SDS011;9548;56.920;14.804;2023-02-21T04:37:49;23.70;;;2.78;;
18838;SDS011;9548;56.920;14.804;2023-02-21T04:40:16;23.80;;;3.10;;
18838;SDS011;9548;56.920;14.804;2023-02-21T04:42:43;19.83;;;2.50;;
18838;SDS011;9548;56.920;14.804;2023-02-21T04:45:11;25.75;;;3.97;;
18838;SDS011;9548;56.920;14.804;2023-02-21T04:47:38;22.65;;;2.80;;
18838;SDS011;9548;56.920;14.804;2023-02-21T04:50:06;25.55;;;3.08;;
18838;SDS011;9548;56.920;14.804;2023-02-21T04:52:33;29.33;;;2.95;;
18838;SDS011;9548;56.920;14.804;2023-02-21T04:55:00;24.08;;;3.17;;
18838;SDS011;9548;56.920;14.804;2023-02-21T04:57:27;19.38;;;3.55;;
18838;SDS011;9548;56.920;14.804;2023-02-21T04:59:57;19.40;;;2.80;;
18838;SDS011;9548;56.920;14.804;2023-02-21T05:02:26;19.65;;;2.75;;
18838;SDS011;9548;56.920;14.804;2023-02-21T05:04:53;19.17;;;2.63;;
18838;SDS011;9548;56.920;14.804;2023-02-21T05:07:20;17.75;;;2.72;;
18838;SDS011;9548;56.920;14.804;2023-02-21T05:09:47;19.00;;;3.15;;
18838;SDS011;9548;56.920;14.804;2023-02-21T05:12:14;15.63;;;2.42;;
18838;SDS011;9548;56.920;14.804;2023-02-21T05:14:41;20.70;;;2.60;;
18838;SDS011;9548;56.920;14.804;2023-02-21T05:17:08;23.33;;;3.17;;
18838;SDS011;9548;56.920;14.804;2023-02-21T05:19:37;20.65;;;3.15;;
18838;SDS011;9548;56.920;14.804;2023-02-21T05:22:04;34.92;;;3.40;;
18838;SDS011;9548;56.920;14.804;2023-02-21T05:24:32;20.80;;;3.00;;
18838;SDS011;9548;56.920;14.804;2023-02-21T05:26:59;14.48;;;1.77;;
18838;SDS011;9548;56.920;14.804;2023-02-21T05:29:26;14.77;;;2.80;;
18838;SDS011;9548;56.920;14.804;2023-02-21T05:31:53;24.75;;;3.03;;
18838;SDS011;9548;56.920;14.804;2023-02-21T05:34:20;18.73;;;3.20;;
18838;SDS011;9548;56.920;14.804;2023-02-21T05:36:48;15.13;;;2.83;;
18838;SDS011;9548;56.920;14.804;2023-02-21T05:39:15;26.27;;;3.13;;
18838;SDS011;9548;56.920;14.804;2023-02-21T05:41:46;16.35;;;2.20;;
18838;SDS011;9548;56.920;14.804;2023-02-21T05:44:13;28.35;;;3.63;;
18838;SDS011;9548;56.920;14.804;2023-02-21T05:46:41;26.00;;;2.47;;
18838;SDS011;9548;56.920;14.804;2023-02-21T05:49:08;17.40;;;2.22;;
18838;SDS011;9548;56.920;14.804;2023-02-21T05:51:35;19.55;;;2.50;;
18838;SDS011;9548;56.920;14.804;2023-02-21T05:54:05;21.85;;;2.58;;
18838;SDS011;9548;56.920;14.804;2023-02-21T05:56:36;14.30;;;2.38;;
18838;SDS011;9548;56.920;14.804;2023-02-21T05:59:04;20.80;;;2.50;;
18838;SDS011;9548;56.920;14.804;2023-02-21T06:01:31;24.38;;;3.38;;
18838;SDS011;9548;56.920;14.804;2023-02-21T06:03:58;15.25;;;2.08;;
18838;SDS011;9548;56.920;14.804;2023-02-21T06:06:25;22.70;;;2.92;;
18838;SDS011;9548;56.920;14.804;2023-02-21T06:08:52;23.05;;;3.40;;
18838;SDS011;9548;56.920;14.804;2023-02-21T06:11:22;14.88;;;2.45;;
18838;SDS011;9548;56.920;14.804;2023-02-21T06:13:52;20.80;;;2.42;;
18838;SDS011;9548;56.920;14.804;2023-02-21T06:16:21;23.30;;;2.50;;
18838;SDS011;9548;56.920;14.804;2023-02-21T06:18:49;16.38;;;1.90;;
18838;SDS011;9548;56.920;14.804;2023-02-21T06:21:19;18.65;;;2.50;;
18838;SDS011;9548;56.920;14.804;2023-02-21T06:23:48;18.30;;;1.77;;
18838;SDS011;9548;56.920;14.804;2023-02-21T06:26:16;19.83;;;3.05;;
18838;SDS011;9548;56.920;14.804;2023-02-21T06:28:47;18.70;;;2.33;;
18838;SDS011;9548;56.920;14.804;2023-02-21T06:31:15;17.35;;;3.13;;
18838;SDS011;9548;56.920;14.804;2023-02-21T06:33:42;25.50;;;3.05;;
18838;SDS011;9548;56.920;14.804;2023-02-21T06:36:09;23.80;;;2.53;;
18838;SDS011;9548;56.920;14.804;2023-02-21T06:38:39;17.77;;;2.45;;
18838;SDS011;9548;56.920;14.804;2023-02-21T06:41:08;34.67;;;2.75;;
18838;SDS011;9548;56.920;14.804;2023-02-21T06:43:35;15.45;;;2.47;;
18838;SDS011;9548;56.920;14.804;2023-02-21T06:46:04;23.75;;;2.35;;
18838;SDS011;9548;56.920;14.804;2023-02-21T06:48:31;24.33;;;2.38;;
18838;SDS011;9548;56.920;14.804;2023-02-21T06:50:58;21.10;;;2.90;;
18838;SDS011;9548;56.920;14.804;2023-02-21T06:53:25;18.88;;;2.60;;
18838;SDS011;9548;56.920;14.804;2023-02-21T06:55:52;22.25;;;2.63;;
18838;SDS011;9548;56.920;14.804;2023-02-21T06:58:19;14.07;;;2.65;;
18838;SDS011;9548;56.920;14.804;2023-02-21T07:00:45;16.80;;;2.50;;
18838;SDS011;9548;56.920;14.804;2023-02-21T07:03:14;17.88;;;1.90;;
18838;SDS011;9548;56.920;14.804;2023-02-21T07:05:40;18.95;;;2.30;;
18838;SDS011;9548;56.920;14.804;2023-02-21T07:08:08;12.43;;;2.28;;
18838;SDS011;9548;56.920;14.804;2023-02-21T07:10:35;13.27;;;2.40;;
18838;SDS011;9548;56.920;14.804;2023-02-21T07:13:02;22.70;;;2.45;;
18838;SDS011;9548;56.920;14.804;2023-02-21T07:15:29;18.35;;;2.22;;
18838;SDS011;9548;56.920;14.804;2023-02-21T07:17:56;15.43;;;2.47;;
18838;SDS011;9548;56.920;14.804;2023-02-21T07:20:24;15.30;;;1.88;;
18838;SDS011;9548;56.920;14.804;2023-02-21T07:22:51;15.55;;;2.28;;
18838;SDS011;9548;56.920;14.804;2023-02-21T07:25:20;15.02;;;1.85;;
18838;SDS011;9548;56.920;14.804;2023-02-21T07:27:48;17.52;;;2.55;;
18838;SDS011;9548;56.920;14.804;2023-02-21T07:30:17;13.48;;;2.13;;
18838;SDS011;9548;56.920;14.804;2023-02-21T07:32:44;17.60;;;2.65;;
18838;SDS011;9548;56.920;14.804;2023-02-21T07:35:11;15.20;;;2.10;;
18838;SDS011;9548;56.920;14.804;2023-02-21T07:37:39;11.82;;;2.10;;
18838;SDS011;9548;56.920;14.804;2023-02-21T07:40:06;14.00;;;2.08;;
18838;SDS011;9548;56.920;14.804;2023-02-21T07:42:34;15.07;;;1.80;;
18838;SDS011;9548;56.920;14.804;2023-02-21T07:45:01;16.60;;;1.77;;
18838;SDS011;9548;56.920;14.804;2023-02-21T07:47:29;10.88;;;1.80;;
18838;SDS011;9548;56.920;14.804;2023-02-21T07:49:56;8.63;;;1.40;;
18838;SDS011;9548;56.920;14.804;2023-02-21T07:52:23;14.63;;;2.00;;
18838;SDS011;9548;56.920;14.804;2023-02-21T07:54:51;12.45;;;2.17;;
18838;SDS011;9548;56.920;14.804;2023-02-21T07:57:18;11.02;;;1.40;;
18838;SDS011;9548;56.920;14.804;2023-02-21T07:59:45;13.20;;;1.70;;
18838;SDS011;9548;56.920;14.804;2023-02-21T08:02:13;10.60;;;1.73;;
18838;SDS011;9548;56.920;14.804;2023-02-21T08:04:40;9.85;;;1.40;;
18838;SDS011;9548;56.920;14.804;2023-02-21T08:07:07;8.32;;;1.38;;
18838;SDS011;9548;56.920;14.804;2023-02-21T08:09:35;7.20;;;1.40;;
18838;SDS011;9548;56.920;14.804;2023-02-21T08:12:07;11.80;;;1.48;;
18838;SDS011;9548;56.920;14.804;2023-02-21T08:14:34;11.00;;;1.38;;
18838;SDS011;9548;56.920;14.804;2023-02-21T08:17:06;12.00;;;1.15;;
18838;SDS011;9548;56.920;14.804;2023-02-21T08:19:33;6.00;;;0.93;;
18838;SDS011;9548;56.920;14.804;2023-02-21T08:22:00;10.82;;;1.55;;
18838;SDS011;9548;56.920;14.804;2023-02-21T08:24:26;8.18;;;1.00;;
18838;SDS011;9548;56.920;14.804;2023-02-21T08:26:53;12.15;;;1.30;;
18838;SDS011;9548;56.920;14.804;2023-02-21T08:29:22;4.82;;;0.98;;
18838;SDS011;9548;56.920;14.804;2023-02-21T08:31:49;9.07;;;1.08;;
18838;SDS011;9548;56.920;14.804;2023-02-21T08:34:15;9.70;;;1.60;;
18838;SDS011;9548;56.920;14.804;2023-02-21T08:36:42;7.68;;;1.15;;
18838;SDS011;9548;56.920;14.804;2023-02-21T08:39:09;7.53;;;1.52;;
18838;SDS011;9548;56.920;14.804;2023-02-21T08:41:37;4.88;;;0.50;;
18838;SDS011;9548;56.920;14.804;2023-02-21T08:44:05;3.95;;;0.93;;
18838;SDS011;9548;56.920;14.804;2023-02-21T08:46:33;8.18;;;0.90;;
18838;SDS011;9548;56.920;14.804;2023-02-21T08:49:01;4.65;;;0.55;;
18838;SDS011;9548;56.920;14.804;2023-02-21T08:51:29;9.18;;;0.90;;
18838;SDS011;9548;56.920;14.804;2023-02-21T08:53:57;6.30;;;0.68;;
18838;SDS011;9548;56.920;14.804;2023-02-21T08:56:25;5.75;;;0.70;;
18838;SDS011;9548;56.920;14.804;2023-02-21T08:58:53;3.88;;;0.30;;
18838;SDS011;9548;56.920;14.804;2023-02-21T09:01:20;6.28;;;0.80;;
18838;SDS011;9548;56.920;14.804;2023-02-21T09:03:49;2.88;;;0.40;;
18838;SDS011;9548;56.920;14.804;2023-02-21T09:06:16;4.45;;;0.63;;
18838;SDS011;9548;56.920;14.804;2023-02-21T09:08:43;3.25;;;0.40;;
18838;SDS011;9548;56.920;14.804;2023-02-21T09:11:10;1.17;;;0.50;;
18838;SDS011;9548;56.920;14.804;2023-02-21T09:13:37;1.35;;;0.50;;
18838;SDS011;9548;56.920;14.804;2023-02-21T09:16:06;4.13;;;0.40;;
18838;SDS011;9548;56.920;14.804;2023-02-21T09:18:33;5.97;;;0.60;;
18838;SDS011;9548;56.920;14.804;2023-02-21T09:21:01;1.08;;;0.40;;
18838;SDS011;9548;56.920;14.804;2023-02-21T09:23:29;1.45;;;0.47;;
18838;SDS011;9548;56.920;14.804;2023-02-21T09:25:56;1.88;;;0.30;;
18838;SDS011;9548;56.920;14.804;2023-02-21T09:28:23;1.55;;;0.30;;
18838;SDS011;9548;56.920;14.804;2023-02-21T09:30:50;4.07;;;0.40;;
18838;SDS011;9548;56.920;14.804;2023-02-21T09:33:17;0.75;;;0.20;;
18838;SDS011;9548;56.920;14.804;2023-02-21T09:35:44;2.80;;;0.20;;
18838;SDS011;9548;56.920;14.804;2023-02-21T09:38:12;0.63;;;0.13;;
18838;SDS011;9548;56.920;14.804;2023-02-21T09:40:40;2.05;;;0.20;;
18838;SDS011;9548;56.920;14.804;2023-02-21T09:43:11;3.33;;;0.30;;
18838;SDS011;9548;56.920;14.804;2023-02-21T09:45:40;2.30;;;0.30;;
18838;SDS011;9548;56.920;14.804;2023-02-21T09:48:10;0.13;;;0.13;;
18838;SDS011;9548;56.920;14.804;2023-02-21T09:50:40;1.02;;;0.20;;
18838;SDS011;9548;56.920;14.804;2023-02-21T09:53:13;1.45;;;0.38;;
18838;SDS011;9548;56.920;14.804;2023-02-21T09:55:44;1.35;;;0.20;;
18838;SDS011;9548;56.920;14.804;2023-02-21T09:58:14;1.88;;;0.10;;
18838;SDS011;9548;56.920;14.804;2023-02-21T10:00:43;0.70;;;0.20;;
18838;SDS011;9548;56.920;14.804;2023-02-21T10:03:15;0.63;;;0.20;;
18838;SDS011;9548;56.920;14.804;2023-02-21T10:05:53;3.15;;;0.10;;
18838;SDS011;9548;56.920;14.804;2023-02-21T10:08:28;0.47;;;0.17;;
18838;SDS011;9548;56.920;14.804;2023-02-21T10:11:02;2.33;;;0.20;;
18838;SDS011;9548;56.920;14.804;2023-02-21T10:13:40;0.80;;;0.10;;
18838;SDS011;9548;56.920;14.804;2023-02-21T10:16:18;2.05;;;0.25;;
18838;SDS011;9548;56.920;14.804;2023-02-21T10:18:51;0.10;;;0.00;;
18838;SDS011;9548;56.920;14.804;2023-02-21T10:21:29;1.02;;;0.00;;
18838;SDS011;9548;56.920;14.804;2023-02-21T10:24:04;1.80;;;0.10;;
18838;SDS011;9548;56.920;14.804;2023-02-21T10:26:38;1.27;;;0.03;;
18838;SDS011;9548;56.920;14.804;2023-02-21T10:29:09;0.20;;;0.05;;
18838;SDS011;9548;56.920;14.804;2023-02-21T10:31:46;0.00;;;0.00;;
18838;SDS011;9548;56.920;14.804;2023-02-21T10:34:19;0.35;;;0.10;;
18838;SDS011;9548;56.920;14.804;2023-02-21T10:36:50;0.20;;;0.10;;
18838;SDS011;9548;56.920;14.804;2023-02-21T10:39:23;0.00;;;0.00;;
18838;SDS011;9548;56.920;14.804;2023-02-21T10:41:56;0.10;;;0.00;;
18838;SDS011;9548;56.920;14.804;2023-02-21T10:44:25;0.10;;;0.10;;
18838;SDS011;9548;56.920;14.804;2023-02-21T10:46:58;0.30;;;0.05;;
18838;SDS011;9548;56.920;14.804;2023-02-21T10:49:28;5.68;;;0.17;;
18838;SDS011;9548;56.920;14.804;2023-02-21T10:52:03;0.10;;;0.00;;
18838;SDS011;9548;56.920;14.804;2023-02-21T10:54:35;0.52;;;0.10;;
18838;SDS011;9548;56.920;14.804;2023-02-21T10:57:03;0.08;;;0.08;;
18838;SDS011;9548;56.920;14.804;2023-02-21T10:59:32;0.65;;;0.10;;
18838;SDS011;9548;56.920;14.804;2023-02-21T11:02:02;1.50;;;0.00;;
18838;SDS011;9548;56.920;14.804;2023-02-21T11:04:49;0.28;;;0.10;;
18838;SDS011;9548;56.920;14.804;2023-02-21T11:07:18;0.00;;;0.00;;
18838;SDS011;9548;56.920;14.804;2023-02-21T11:09:47;0.30;;;0.05;;
18838;SDS011;9548;56.920;14.804;2023-02-21T11:12:18;0.10;;;0.03;;
18838;SDS011;9548;56.920;14.804;2023-02-21T11:17:43;0.10;;;0.10;;
18838;SDS011;9548;56.920;14.804;2023-02-21T11:20:15;0.75;;;0.00;;
18838;SDS011;9548;56.920;14.804;2023-02-21T11:22:45;0.35;;;0.00;;
18838;SDS011;9548;56.920;14.804;2023-02-21T11:25:20;0.00;;;0.00;;
18838;SDS011;9548;56.920;14.804;2023-02-21T11:27:58;0.20;;;0.10;;
18838;SDS011;9548;56.920;14.804;2023-02-21T11:30:28;0.32;;;0.10;;
18838;SDS011;9548;56.920;14.804;2023-02-21T11:32:57;0.40;;;0.00;;
18838;SDS011;9548;56.920;14.804;2023-02-21T11:35:26;0.63;;;0.10;;
18838;SDS011;9548;56.920;14.804;2023-02-21T11:37:56;0.03;;;0.03;;
18838;SDS011;9548;56.920;14.804;2023-02-21T11:40:33;0.43;;;0.10;;
18838;SDS011;9548;56.920;14.804;2023-02-21T11:43:20;0.10;;;0.00;;
18838;SDS011;9548;56.920;14.804;2023-02-21T11:45:59;1.65;;;0.00;;
18838;SDS011;9548;56.920;14.804;2023-02-21T11:48:31;0.00;;;0.00;;
18838;SDS011;9548;56.920;14.804;2023-02-21T11:51:05;0.90;;;0.13;;
18838;SDS011;9548;56.920;14.804;2023-02-21T11:53:43;0.00;;;0.00;;
18838;SDS011;9548;56.920;14.804;2023-02-21T11:56:27;0.45;;;0.38;;
18838;SDS011;9548;56.920;14.804;2023-02-21T11:59:01;0.10;;;0.10;;
18838;SDS011;9548;56.920;14.804;2023-02-21T12:01:39;0.10;;;0.10;;
18838;SDS011;9548;56.920;14.804;2023-02-21T12:04:14;0.10;;;0.10;;
18838;SDS011;9548;56.920;14.804;2023-02-21T12:06:57;0.10;;;0.10;;
18838;SDS011;9548;56.920;14.804;2023-02-21T12:09:31;0.10;;;0.10;;
18838;SDS011;9548;56.920;14.804;2023-02-21T12:12:09;0.38;;;0.10;;
18838;SDS011;9548;56.920;14.804;2023-02-21T12:14:50;0.10;;;0.10;;
18838;SDS011;9548;56.920;14.804;2023-02-21T12:20:56;0.10;;;0.10;;
18838;SDS011;9548;56.920;14.804;2023-02-21T12:23:40;0.10;;;0.10;;
18838;SDS011;9548;56.920;14.804;2023-02-21T12:26:18;0.52;;;0.20;;
18838;SDS011;9548;56.920;14.804;2023-02-21T12:29:00;0.52;;;0.10;;
18838;SDS011;9548;56.920;14.804;2023-02-21T12:31:42;0.10;;;0.10;;
18838;SDS011;9548;56.920;14.804;2023-02-21T12:34:21;0.10;;;0.10;;
18838;SDS011;9548;56.920;14.804;2023-02-21T12:36:58;0.20;;;0.10;;
18838;SDS011;9548;56.920;14.804;2023-02-21T12:39:36;0.10;;;0.10;;
18838;SDS011;9548;56.920;14.804;2023-02-21T12:42:17;0.10;;;0.10;;
18838;SDS011;9548;56.920;14.804;2023-02-21T12:44:57;0.10;;;0.10;;
18838;SDS011;9548;56.920;14.804;2023-02-21T12:47:33;4.72;;;0.28;;
18838;SDS011;9548;56.920;14.804;2023-02-21T12:50:04;8.25;;;0.30;;
18838;SDS011;9548;56.920;14.804;2023-02-21T12:52:39;1.33;;;0.30;;
18838;SDS011;9548;56.920;14.804;2023-02-21T12:55:11;0.20;;;0.10;;
18838;SDS011;9548;56.920;14.804;2023-02-21T12:57:42;0.15;;;0.10;;
18838;SDS011;9548;56.920;14.804;2023-02-21T13:00:17;0.10;;;0.10;;
18838;SDS011;9548;56.920;14.804;2023-02-21T13:02:49;0.28;;;0.00;;
18838;SDS011;9548;56.920;14.804;2023-02-21T13:05:25;0.10;;;0.10;;
18838;SDS011;9548;56.920;14.804;2023-02-21T13:07:59;0.10;;;0.10;;
18838;SDS011;9548;56.920;14.804;2023-02-21T13:10:30;0.32;;;0.00;;
18838;SDS011;9548;56.920;14.804;2023-02-21T13:13:03;0.10;;;0.10;;
18838;SDS011;9548;56.920;14.804;2023-02-21T13:15:38;0.65;;;0.10;;
18838;SDS011;9548;56.920;14.804;2023-02-21T13:18:10;0.00;;;0.00;;
18838;SDS011;9548;56.920;14.804;2023-02-21T13:20:45;0.00;;;0.00;;
18838;SDS011;9548;56.920;14.804;2023-02-21T13:26:24;0.45;;;0.13;;
18838;SDS011;9548;56.920;14.804;2023-02-21T13:29:09;2.42;;;0.28;;
18838;SDS011;9548;56.920;14.804;2023-02-21T13:31:44;0.00;;;0.00;;
18838;SDS011;9548;56.920;14.804;2023-02-21T13:34:12;0.13;;;0.10;;
18838;SDS011;9548;56.920;14.804;2023-02-21T13:36:45;0.35;;;0.10;;
18838;SDS011;9548;56.920;14.804;2023-02-21T13:39:14;3.90;;;0.20;;
18838;SDS011;9548;56.920;14.804;2023-02-21T13:41:44;0.10;;;0.10;;
18838;SDS011;9548;56.920;14.804;2023-02-21T13:44:16;0.80;;;0.10;;
18838;SDS011;9548;56.920;14.804;2023-02-21T13:46:59;0.10;;;0.10;;
18838;SDS011;9548;56.920;14.804;2023-02-21T13:49:35;0.10;;;0.10;;
18838;SDS011;9548;56.920;14.804;2023-02-21T13:52:14;0.10;;;0.10;;
18838;SDS011;9548;56.920;14.804;2023-02-21T13:55:24;0.20;;;0.10;;
18838;SDS011;9548;56.920;14.804;2023-02-21T14:07:05;0.25;;;0.10;;
18838;SDS011;9548;56.920;14.804;2023-02-21T14:09:33;0.08;;;0.00;;
18838;SDS011;9548;56.920;14.804;2023-02-21T14:12:02;1.75;;;0.20;;
18838;SDS011;9548;56.920;14.804;2023-02-21T14:14:31;0.17;;;0.00;;
18838;SDS011;9548;56.920;14.804;2023-02-21T14:17:04;0.10;;;0.10;;
18838;SDS011;9548;56.920;14.804;2023-02-21T14:19:34;0.17;;;0.10;;
18838;SDS011;9548;56.920;14.804;2023-02-21T14:22:03;0.00;;;0.00;;
18838;SDS011;9548;56.920;14.804;2023-02-21T14:24:37;0.00;;;0.00;;
18838;SDS011;9548;56.920;14.804;2023-02-21T14:30:22;0.30;;;0.00;;
18838;SDS011;9548;56.920;14.804;2023-02-21T14:32:57;0.10;;;0.10;;
18838;SDS011;9548;56.920;14.804;2023-02-21T14:35:35;0.10;;;0.00;;
18838;SDS011;9548;56.920;14.804;2023-02-21T14:38:16;0.43;;;0.13;;
18838;SDS011;9548;56.920;14.804;2023-02-21T14:40:48;0.00;;;0.00;;
18838;SDS011;9548;56.920;14.804;2023-02-21T14:43:43;0.13;;;0.00;;
18838;SDS011;9548;56.920;14.804;2023-02-21T14:46:45;1.33;;;0.10;;
18838;SDS011;9548;56.920;14.804;2023-02-21T14:49:47;0.13;;;0.10;;
18838;SDS011;9548;56.920;14.804;2023-02-21T14:55:42;6.22;;;0.20;;
18838;SDS011;9548;56.920;14.804;2023-02-21T14:58:28;0.00;;;0.00;;
18838;SDS011;9548;56.920;14.804;2023-02-21T15:01:39;0.00;;;0.00;;
18838;SDS011;9548;56.920;14.804;2023-02-21T15:04:13;0.20;;;0.10;;
18838;SDS011;9548;56.920;14.804;2023-02-21T15:06:45;0.00;;;0.00;;
18838;SDS011;9548;56.920;14.804;2023-02-21T15:09:24;0.10;;;0.00;;
18838;SDS011;9548;56.920;14.804;2023-02-21T15:11:52;0.00;;;0.00;;
18838;SDS011;9548;56.920;14.804;2023-02-21T15:14:21;2.65;;;0.10;;
18838;SDS011;9548;56.920;14.804;2023-02-21T15:16:53;0.30;;;0.10;;
18838;SDS011;9548;56.920;14.804;2023-02-21T15:19:25;1.00;;;0.10;;
18838;SDS011;9548;56.920;14.804;2023-02-21T15:22:13;0.00;;;0.00;;
18838;SDS011;9548;56.920;14.804;2023-02-21T15:24:55;0.20;;;0.10;;
18838;SDS011;9548;56.920;14.804;2023-02-21T15:27:54;0.10;;;0.10;;
18838;SDS011;9548;56.920;14.804;2023-02-21T15:30:32;0.00;;;0.00;;
18838;SDS011;9548;56.920;14.804;2023-02-21T15:33:15;0.00;;;0.00;;
18838;SDS011;9548;56.920;14.804;2023-02-21T15:35:45;0.30;;;0.10;;
18838;SDS011;9548;56.920;14.804;2023-02-21T15:38:16;0.00;;;0.00;;
18838;SDS011;9548;56.920;14.804;2023-02-21T15:40:47;0.20;;;0.17;;
18838;SDS011;9548;56.920;14.804;2023-02-21T15:43:23;4.38;;;0.30;;
18838;SDS011;9548;56.920;14.804;2023-02-21T15:45:54;0.10;;;0.10;;
18838;SDS011;9548;56.920;14.804;2023-02-21T15:48:24;0.47;;;0.10;;